createdAt,value
2024-04-04T00:00:00.977Z,935.14
2024-04-04T00:01:01.941Z,935.06
2024-04-04T00:02:02.993Z,935.07
2024-04-04T00:03:03.115Z,935.04
2024-04-04T00:04:04.075Z,935.01
2024-04-04T00:05:04.207Z,934.99
2024-04-04T00:06:04.920Z,934.99
2024-04-04T00:07:05.094Z,934.94
2024-04-04T00:08:05.997Z,935
2024-04-04T00:09:06.937Z,935.05
2024-04-04T00:10:07.640Z,934.99
2024-04-04T00:11:08.567Z,935.04
2024-04-04T00:12:09.279Z,935.05
2024-04-04T00:13:10.128Z,935.06
2024-04-04T00:14:10.088Z,935.11
2024-04-04T00:15:10.818Z,935.1
2024-04-04T00:16:11.764Z,935.11
2024-04-04T00:17:12.743Z,935.1
2024-04-04T00:18:14.248Z,935.09
2024-04-04T00:19:14.575Z,935.12
2024-04-04T00:20:15.710Z,935.13
2024-04-04T00:21:15.281Z,935.15
2024-04-04T00:22:15.774Z,935.07
2024-04-04T00:23:16.463Z,935.04
2024-04-04T00:24:17.169Z,935.04
2024-04-04T00:25:17.871Z,935.11
2024-04-04T00:26:18.627Z,935.06
2024-04-04T00:27:18.754Z,935.06
2024-04-04T00:28:19.287Z,935.06
2024-04-04T00:29:20.243Z,935.19
2024-04-04T00:30:20.688Z,935.12
2024-04-04T00:31:21.607Z,935.08
2024-04-04T00:32:22.646Z,935.06
2024-04-04T00:33:22.912Z,934.99
2024-04-04T00:34:23.823Z,935.08
2024-04-04T00:35:24.140Z,935.09
2024-04-04T00:36:24.726Z,935.06
2024-04-04T00:37:25.033Z,935.1
2024-04-04T00:38:25.940Z,935.09
2024-04-04T00:39:26.847Z,935.09
2024-04-04T00:40:27.475Z,935.08
2024-04-04T00:41:28.422Z,935.12
2024-04-04T00:42:29.171Z,935.05
2024-04-04T00:43:29.902Z,935.09
2024-04-04T00:44:30.008Z,935.07
2024-04-04T00:45:30.300Z,935.13
2024-04-04T00:46:30.492Z,935.09
2024-04-04T00:47:30.651Z,935.09
2024-04-04T00:48:30.783Z,935.13
2024-04-04T00:49:31.696Z,935.19
2024-04-04T00:50:32.492Z,935.09
2024-04-04T00:51:33.115Z,935.04
2024-04-04T00:52:33.884Z,935.07
2024-04-04T00:53:34.390Z,935.02
2024-04-04T00:54:35.155Z,934.98
2024-04-04T00:55:35.956Z,935.04
2024-04-04T00:56:36.682Z,934.95
2024-04-04T00:57:37.422Z,935.04
2024-04-04T00:58:37.970Z,935.06
2024-04-04T00:59:38.882Z,934.98
2024-04-04T01:00:39.871Z,934.94
2024-04-04T01:01:40.212Z,934.96
2024-04-04T01:02:40.499Z,934.95
2024-04-04T01:03:41.223Z,935.01
2024-04-04T01:04:42.301Z,934.99
2024-04-04T01:05:42.445Z,934.98
2024-04-04T01:06:43.403Z,934.99
2024-04-04T01:07:44.208Z,935.05
2024-04-04T01:08:45.104Z,935.07
2024-04-04T01:09:45.600Z,935.03
2024-04-04T01:10:46.472Z,935.06
2024-04-04T01:11:47.283Z,935.09
2024-04-04T01:12:47.430Z,935.09
2024-04-04T01:13:48.003Z,935.13
2024-04-04T01:14:48.923Z,935.01
2024-04-04T01:15:49.895Z,935.11
2024-04-04T01:16:50.754Z,935.17
2024-04-04T01:17:51.507Z,935.08
2024-04-04T01:18:52.234Z,935.13
2024-04-04T01:19:52.967Z,935.13
2024-04-04T01:20:53.091Z,935.11
2024-04-04T01:21:53.794Z,935.21
2024-04-04T01:22:54.090Z,935.13
2024-04-04T01:23:54.801Z,935.25
2024-04-04T01:24:55.324Z,935.19
2024-04-04T01:25:56.262Z,935.26
2024-04-04T01:26:56.791Z,935.3
2024-04-04T01:27:56.917Z,935.22
2024-04-04T01:28:57.047Z,935.2
2024-04-04T01:29:57.960Z,935.18
2024-04-04T01:30:59.025Z,935.21
2024-04-04T01:31:59.764Z,935.2
2024-04-04T01:33:00.726Z,935.17
2024-04-04T01:34:00.852Z,935.17
2024-04-04T01:35:01.377Z,935.17
2024-04-04T01:36:02.286Z,935.2
2024-04-04T01:37:03.189Z,935.17
2024-04-04T01:38:03.733Z,935.21
2024-04-04T01:39:04.633Z,935.22
2024-04-04T01:40:04.730Z,935.29
2024-04-04T01:41:05.745Z,935.27
2024-04-04T01:42:06.298Z,935.26
2024-04-04T01:43:06.988Z,935.32
2024-04-04T01:44:07.930Z,935.29
2024-04-04T01:45:08.054Z,935.26
2024-04-04T01:46:08.907Z,935.27
2024-04-04T01:47:09.635Z,935.3
2024-04-04T01:48:10.620Z,935.29
2024-04-04T01:49:11.419Z,935.31
2024-04-04T01:50:12.314Z,935.32
2024-04-04T01:51:13.084Z,935.34
2024-04-04T01:52:13.993Z,935.29
2024-04-04T01:53:14.703Z,935.2
2024-04-04T01:54:15.623Z,935.21
2024-04-04T01:55:16.568Z,935.3
2024-04-04T01:56:17.473Z,935.3
2024-04-04T01:57:18.223Z,935.34
2024-04-04T01:58:18.751Z,935.31
2024-04-04T01:59:18.924Z,935.28
2024-04-04T02:00:19.850Z,935.25
2024-04-04T02:01:20.941Z,935.31
2024-04-04T02:02:21.859Z,935.32
2024-04-04T02:03:22.405Z,935.31
2024-04-04T02:04:23.382Z,935.36
2024-04-04T02:05:24.415Z,935.32
2024-04-04T02:06:25.168Z,935.31
2024-04-04T02:07:25.861Z,935.33
2024-04-04T02:08:26.792Z,935.36
2024-04-04T02:09:27.495Z,935.33
2024-04-04T02:10:28.563Z,935.33
2024-04-04T02:11:29.188Z,935.33
2024-04-04T02:12:29.895Z,935.33
2024-04-04T02:13:30.395Z,935.33
2024-04-04T02:14:31.350Z,935.32
2024-04-04T02:15:31.452Z,935.38
2024-04-04T02:16:32.145Z,935.31
2024-04-04T02:17:32.238Z,935.35
2024-04-04T02:18:33.219Z,935.33
2024-04-04T02:19:33.755Z,935.31
2024-04-04T02:20:34.737Z,935.29
2024-04-04T02:21:34.982Z,935.31
2024-04-04T02:22:35.688Z,935.37
2024-04-04T02:23:35.984Z,935.34
2024-04-04T02:24:36.263Z,935.36
2024-04-04T02:25:36.878Z,935.22
2024-04-04T02:26:37.820Z,935.22
2024-04-04T02:27:37.929Z,935.36
2024-04-04T02:28:38.911Z,935.24
2024-04-04T02:29:39.681Z,935.31
2024-04-04T02:30:40.600Z,935.29
2024-04-04T02:31:40.707Z,935.26
2024-04-04T02:32:41.643Z,935.3
2024-04-04T02:33:42.397Z,935.29
2024-04-04T02:34:43.168Z,935.45
2024-04-04T02:35:43.712Z,935.42
2024-04-04T02:36:44.427Z,935.46
2024-04-04T02:37:45.379Z,935.44
2024-04-04T02:38:46.316Z,935.47
2024-04-04T02:39:47.223Z,935.49
2024-04-04T02:40:47.414Z,935.51
2024-04-04T02:41:48.039Z,935.52
2024-04-04T02:42:48.763Z,935.46
2024-04-04T02:43:49.760Z,935.37
2024-04-04T02:44:50.709Z,935.44
2024-04-04T02:45:51.444Z,935.4
2024-04-04T02:46:52.439Z,935.4
2024-04-04T02:47:52.567Z,935.43
2024-04-04T02:48:53.530Z,935.37
2024-04-04T02:49:53.790Z,935.41
2024-04-04T02:50:54.529Z,935.36
2024-04-04T02:51:54.995Z,935.34
2024-04-04T02:52:55.827Z,935.41
2024-04-04T02:53:56.544Z,935.44
2024-04-04T02:54:57.378Z,935.45
2024-04-04T02:55:57.837Z,935.5
2024-04-04T02:56:58.558Z,935.47
2024-04-04T02:57:59.543Z,935.45
2024-04-04T02:58:59.687Z,935.44
2024-04-04T03:00:00.225Z,935.46
2024-04-04T03:01:00.396Z,935.44
2024-04-04T03:02:00.511Z,935.51
2024-04-04T03:03:01.281Z,935.54
2024-04-04T03:04:01.976Z,935.5
2024-04-04T03:05:02.516Z,935.48
2024-04-04T03:06:02.983Z,935.55
2024-04-04T03:07:03.486Z,935.52
2024-04-04T03:08:04.394Z,935.57
2024-04-04T03:09:05.124Z,935.6
2024-04-04T03:10:05.650Z,935.61
2024-04-04T03:11:06.590Z,935.67
2024-04-04T03:12:06.689Z,935.65
2024-04-04T03:13:07.375Z,935.64
2024-04-04T03:14:08.120Z,935.66
2024-04-04T03:15:08.235Z,935.61
2024-04-04T03:16:09.144Z,935.56
2024-04-04T03:17:09.675Z,935.59
2024-04-04T03:18:10.611Z,935.53
2024-04-04T03:19:10.796Z,935.58
2024-04-04T03:20:11.730Z,935.58
2024-04-04T03:21:12.444Z,935.66
2024-04-04T03:22:12.641Z,935.67
2024-04-04T03:23:13.665Z,935.64
2024-04-04T03:24:14.181Z,935.58
2024-04-04T03:25:14.300Z,935.58
2024-04-04T03:26:14.803Z,935.56
2024-04-04T03:27:15.313Z,935.62
2024-04-04T03:28:16.223Z,935.65
2024-04-04T03:29:16.984Z,935.65
2024-04-04T03:30:17.887Z,935.64
2024-04-04T03:31:18.037Z,935.6
2024-04-04T03:32:18.888Z,935.58
2024-04-04T03:33:19.841Z,935.62
2024-04-04T03:34:20.812Z,935.69
2024-04-04T03:35:21.851Z,935.67
2024-04-04T03:36:21.999Z,935.7
2024-04-04T03:37:22.745Z,935.61
2024-04-04T03:38:22.873Z,935.56
2024-04-04T03:39:23.380Z,935.66
2024-04-04T03:40:24.150Z,935.68
2024-04-04T03:41:25.054Z,935.63
2024-04-04T03:42:25.280Z,935.59
2024-04-04T03:43:25.572Z,935.62
2024-04-04T03:44:26.272Z,935.62
2024-04-04T03:45:26.806Z,935.62
2024-04-04T03:46:26.935Z,935.64
2024-04-04T03:47:27.644Z,935.7
2024-04-04T03:48:27.823Z,935.65
2024-04-04T03:49:28.775Z,935.72
2024-04-04T03:50:28.889Z,935.68
2024-04-04T03:51:29.810Z,935.73
2024-04-04T03:52:29.995Z,935.72
2024-04-04T03:53:30.098Z,935.68
2024-04-04T03:54:30.994Z,935.73
2024-04-04T03:55:31.321Z,935.65
2024-04-04T03:56:32.226Z,935.64
2024-04-04T03:57:33.243Z,935.67
2024-04-04T03:58:33.966Z,935.71
2024-04-04T03:59:34.679Z,935.7
2024-04-04T04:00:34.813Z,935.71
2024-04-04T04:01:35.874Z,935.66
2024-04-04T04:02:36.361Z,935.56
2024-04-04T04:03:37.140Z,935.69
2024-04-04T04:04:37.308Z,935.73
2024-04-04T04:05:37.797Z,935.62
2024-04-04T04:06:38.737Z,935.65
2024-04-04T04:07:39.532Z,935.64
2024-04-04T04:08:40.441Z,935.72
2024-04-04T04:09:41.143Z,935.76
2024-04-04T04:10:41.696Z,935.77
2024-04-04T04:11:42.192Z,935.72
2024-04-04T04:12:42.976Z,935.74
2024-04-04T04:13:43.540Z,935.74
2024-04-04T04:14:44.030Z,935.69
2024-04-04T04:15:44.138Z,935.74
2024-04-04T04:16:44.361Z,935.75
2024-04-04T04:17:45.050Z,935.7
2024-04-04T04:18:45.772Z,935.66
2024-04-04T04:19:46.620Z,935.66
2024-04-04T04:20:47.315Z,935.7
2024-04-04T04:21:48.031Z,935.64
2024-04-04T04:22:48.378Z,935.66
2024-04-04T04:23:48.889Z,935.7
2024-04-04T04:24:49.807Z,935.64
2024-04-04T04:25:50.617Z,935.64
2024-04-04T04:26:50.743Z,935.68
2024-04-04T04:27:51.422Z,935.66
2024-04-04T04:28:52.205Z,935.63
2024-04-04T04:29:53.109Z,935.64
2024-04-04T04:30:53.881Z,935.66
2024-04-04T04:31:54.585Z,935.59
2024-04-04T04:32:55.396Z,935.61
2024-04-04T04:33:56.139Z,935.6
2024-04-04T04:34:57.217Z,935.63
2024-04-04T04:35:57.782Z,935.62
2024-04-04T04:36:58.768Z,935.6
2024-04-04T04:37:59.740Z,935.64
2024-04-04T04:38:59.958Z,935.61
2024-04-04T04:40:00.777Z,935.63
2024-04-04T04:41:01.616Z,935.66
2024-04-04T04:42:02.554Z,935.63
2024-04-04T04:43:02.845Z,935.68
2024-04-04T04:44:02.975Z,935.66
2024-04-04T04:45:03.868Z,935.67
2024-04-04T04:46:04.777Z,935.73
2024-04-04T04:47:05.700Z,935.71
2024-04-04T04:48:06.450Z,935.71
2024-04-04T04:49:07.394Z,935.73
2024-04-04T04:50:07.594Z,935.73
2024-04-04T04:51:08.539Z,935.69
2024-04-04T04:52:09.292Z,935.7
2024-04-04T04:53:10.172Z,935.66
2024-04-04T04:54:10.309Z,935.71
2024-04-04T04:55:11.225Z,935.69
2024-04-04T04:56:11.920Z,935.7
2024-04-04T04:57:12.641Z,935.66
2024-04-04T04:58:13.523Z,935.67
2024-04-04T04:59:14.254Z,935.69
2024-04-04T05:00:15.189Z,935.64
2024-04-04T05:01:15.963Z,935.66
2024-04-04T05:02:16.075Z,935.68
2024-04-04T05:03:16.557Z,935.67
2024-04-04T05:04:17.290Z,935.66
2024-04-04T05:05:18.234Z,935.69
2024-04-04T05:06:19.189Z,935.73
2024-04-04T05:07:19.712Z,935.72
2024-04-04T05:08:19.824Z,935.71
2024-04-04T05:09:20.528Z,935.67
2024-04-04T05:10:21.426Z,935.64
2024-04-04T05:11:22.511Z,935.67
2024-04-04T05:12:23.426Z,935.67
2024-04-04T05:13:24.208Z,935.71
2024-04-04T05:14:25.128Z,935.71
2024-04-04T05:15:25.873Z,935.66
2024-04-04T05:16:25.976Z,935.63
2024-04-04T05:17:26.835Z,935.65
2024-04-04T05:18:27.261Z,935.68
2024-04-04T05:19:27.373Z,935.66
2024-04-04T05:20:28.335Z,935.68
2024-04-04T05:21:28.490Z,935.69
2024-04-04T05:22:28.601Z,935.67
2024-04-04T05:23:28.825Z,935.66
2024-04-04T05:24:29.426Z,935.65
2024-04-04T05:25:30.124Z,935.67
2024-04-04T05:26:30.483Z,935.69
2024-04-04T05:27:31.181Z,935.68
2024-04-04T05:28:31.683Z,935.7
2024-04-04T05:29:32.647Z,935.69
2024-04-04T05:30:33.545Z,935.68
2024-04-04T05:31:34.083Z,935.7
2024-04-04T05:32:34.223Z,935.74
2024-04-04T05:33:34.665Z,935.78
2024-04-04T05:34:35.485Z,935.74
2024-04-04T05:35:35.705Z,935.75
2024-04-04T05:36:36.140Z,935.77
2024-04-04T05:37:36.914Z,935.75
2024-04-04T05:38:37.889Z,935.73
2024-04-04T05:39:37.993Z,935.65
2024-04-04T05:40:38.323Z,935.68
2024-04-04T05:41:38.824Z,935.69
2024-04-04T05:42:39.761Z,935.75
2024-04-04T05:43:40.286Z,935.74
2024-04-04T05:44:41.223Z,935.79
2024-04-04T05:45:42.254Z,935.79
2024-04-04T05:46:42.827Z,935.73
2024-04-04T05:47:43.388Z,935.75
2024-04-04T05:48:43.943Z,935.79
2024-04-04T05:49:44.986Z,935.8
2024-04-04T05:50:46.003Z,935.76
2024-04-04T05:51:46.134Z,935.77
2024-04-04T05:52:47.150Z,935.76
2024-04-04T05:53:47.366Z,935.75
2024-04-04T05:54:47.998Z,935.72
2024-04-04T05:55:48.586Z,935.72
2024-04-04T05:56:49.510Z,935.66
2024-04-04T05:57:50.463Z,935.69
2024-04-04T05:58:51.220Z,935.63
2024-04-04T05:59:51.930Z,935.64
2024-04-04T06:00:52.056Z,935.67
2024-04-04T06:01:52.963Z,935.62
2024-04-04T06:02:53.674Z,935.59
2024-04-04T06:03:53.955Z,935.58
2024-04-04T06:04:54.957Z,935.57
2024-04-04T06:05:55.089Z,935.62
2024-04-04T06:06:56.002Z,935.58
2024-04-04T06:07:56.768Z,935.56
2024-04-04T06:08:57.462Z,935.59
2024-04-04T06:09:57.895Z,935.55
2024-04-04T06:10:58.886Z,935.53
2024-04-04T06:11:59.065Z,935.57
2024-04-04T06:12:59.987Z,935.57
2024-04-04T06:14:00.202Z,935.56
2024-04-04T06:15:00.588Z,935.57
2024-04-04T06:16:01.386Z,935.57
2024-04-04T06:17:01.440Z,935.62
2024-04-04T06:18:02.354Z,935.57
2024-04-04T06:19:03.187Z,935.58
2024-04-04T06:20:03.776Z,935.54
2024-04-04T06:21:03.932Z,935.57
2024-04-04T06:22:04.898Z,935.58
2024-04-04T06:23:05.215Z,935.67
2024-04-04T06:24:05.856Z,935.63
2024-04-04T06:25:06.437Z,935.64
2024-04-04T06:26:07.176Z,935.72
2024-04-04T06:27:07.541Z,935.75
2024-04-04T06:28:08.622Z,935.73
2024-04-04T06:29:09.325Z,935.74
2024-04-04T06:30:10.208Z,935.68
2024-04-04T06:31:10.724Z,935.68
2024-04-04T06:32:11.448Z,935.72
2024-04-04T06:33:11.619Z,935.77
2024-04-04T06:34:12.270Z,935.75
2024-04-04T06:35:13.246Z,935.72
2024-04-04T06:36:14.196Z,935.79
2024-04-04T06:37:14.390Z,935.79
2024-04-04T06:38:14.903Z,935.75
2024-04-04T06:39:15.838Z,935.81
2024-04-04T06:40:16.542Z,935.8
2024-04-04T06:41:16.679Z,935.83
2024-04-04T06:42:17.365Z,935.75
2024-04-04T06:43:18.098Z,935.76
2024-04-04T06:44:18.756Z,935.78
2024-04-04T06:46:19.109Z,935.83
2024-04-04T06:47:20.155Z,935.76
2024-04-04T06:48:20.957Z,935.78
2024-04-04T06:49:21.441Z,935.78
2024-04-04T06:50:22.285Z,935.83
2024-04-04T06:51:22.320Z,935.89
2024-04-04T06:52:22.445Z,935.88
2024-04-04T06:53:23.184Z,935.88
2024-04-04T06:54:23.587Z,935.88
2024-04-04T06:55:24.262Z,935.95
2024-04-04T06:56:24.985Z,935.89
2024-04-04T06:57:25.915Z,935.88
2024-04-04T06:58:26.647Z,935.91
2024-04-04T06:59:27.397Z,935.87
2024-04-04T07:00:28.359Z,935.91
2024-04-04T07:01:29.126Z,935.9
2024-04-04T07:02:30.144Z,935.92
2024-04-04T07:03:30.282Z,935.97
2024-04-04T07:04:30.812Z,935.97
2024-04-04T07:05:30.935Z,935.97
2024-04-04T07:06:32.017Z,935.96
2024-04-04T07:07:32.340Z,935.98
2024-04-04T07:08:32.995Z,936.05
2024-04-04T07:09:33.529Z,936.02
2024-04-04T07:10:33.853Z,935.98
2024-04-04T07:11:34.261Z,936
2024-04-04T07:12:35.019Z,936
2024-04-04T07:13:36.009Z,936.04
2024-04-04T07:14:36.611Z,936
2024-04-04T07:15:37.563Z,935.99
2024-04-04T07:16:38.486Z,935.97
2024-04-04T07:17:39.009Z,935.96
2024-04-04T07:18:39.236Z,935.96
2024-04-04T07:19:40.333Z,935.94
2024-04-04T07:20:40.903Z,935.98
2024-04-04T07:21:41.901Z,935.98
2024-04-04T07:22:42.643Z,935.96
2024-04-04T07:23:43.700Z,935.97
2024-04-04T07:24:44.415Z,935.92
2024-04-04T07:25:45.379Z,935.95
2024-04-04T07:26:46.120Z,935.94
2024-04-04T07:27:47.045Z,935.97
2024-04-04T07:28:47.195Z,935.98
2024-04-04T07:29:47.804Z,936
2024-04-04T07:30:48.708Z,936.06
2024-04-04T07:31:49.704Z,936.06
2024-04-04T07:32:50.493Z,936.08
2024-04-04T07:33:50.704Z,936.04
2024-04-04T07:34:51.275Z,936.06
2024-04-04T07:35:52.059Z,936.05
2024-04-04T07:36:53.039Z,936.06
2024-04-04T07:37:54.000Z,936.08
2024-04-04T07:38:54.930Z,936.06
2024-04-04T07:39:55.874Z,936.11
2024-04-04T07:40:56.701Z,936.09
2024-04-04T07:41:56.883Z,936.1
2024-04-04T07:42:57.673Z,936.11
2024-04-04T07:43:58.475Z,936.12
2024-04-04T07:44:59.383Z,936.14
2024-04-04T07:46:00.164Z,936.15
2024-04-04T07:47:00.848Z,936.15
2024-04-04T07:48:01.572Z,936.13
2024-04-04T07:49:01.739Z,936.13
2024-04-04T07:50:02.752Z,936.13
2024-04-04T07:51:03.720Z,936.12
2024-04-04T07:52:04.474Z,936.16
2024-04-04T07:53:05.242Z,936.2
2024-04-04T07:54:06.184Z,936.24
2024-04-04T07:55:06.905Z,936.22
2024-04-04T07:56:07.913Z,936.2
2024-04-04T07:57:08.652Z,936.23
2024-04-04T07:58:09.167Z,936.25
2024-04-04T07:59:09.718Z,936.29
2024-04-04T08:00:10.444Z,936.37
2024-04-04T08:01:11.160Z,936.38
2024-04-04T08:02:11.727Z,936.35
2024-04-04T08:03:12.508Z,936.4
2024-04-04T08:04:13.261Z,936.41
2024-04-04T08:05:14.281Z,936.35
2024-04-04T08:06:14.427Z,936.44
2024-04-04T08:07:15.439Z,936.43
2024-04-04T08:08:16.188Z,936.42
2024-04-04T08:09:17.127Z,936.43
2024-04-04T08:10:18.547Z,936.4
2024-04-04T08:11:18.499Z,936.41
2024-04-04T08:12:19.074Z,936.35
2024-04-04T08:13:19.603Z,936.33
2024-04-04T08:14:20.191Z,936.28
2024-04-04T08:15:20.834Z,936.24
2024-04-04T08:16:21.039Z,936.24
2024-04-04T08:17:22.103Z,936.28
2024-04-04T08:18:22.895Z,936.21
2024-04-04T08:19:23.223Z,936.25
2024-04-04T08:20:24.202Z,936.23
2024-04-04T08:21:25.189Z,936.24
2024-04-04T08:22:25.382Z,936.2
2024-04-04T08:23:25.509Z,936.2
2024-04-04T08:24:26.435Z,936.24
2024-04-04T08:25:27.352Z,936.23
2024-04-04T08:26:27.514Z,936.18
2024-04-04T08:27:28.255Z,936.19
2024-04-04T08:28:29.193Z,936.2
2024-04-04T08:29:30.110Z,936.16
2024-04-04T08:30:30.834Z,936.18
2024-04-04T08:31:31.557Z,936.15
2024-04-04T08:32:32.558Z,936.18
2024-04-04T08:33:33.336Z,936.15
2024-04-04T08:34:34.174Z,936.15
2024-04-04T08:35:35.019Z,936.2
2024-04-04T08:36:36.001Z,936.17
2024-04-04T08:37:36.276Z,936.16
2024-04-04T08:38:37.193Z,936.19
2024-04-04T08:39:38.151Z,936.21
2024-04-04T08:40:38.933Z,936.23
2024-04-04T08:41:39.695Z,936.24
2024-04-04T08:42:39.843Z,936.19
2024-04-04T08:43:40.559Z,936.14
2024-04-04T08:44:41.488Z,936.17
2024-04-04T08:45:41.696Z,936.21
2024-04-04T08:46:42.489Z,936.23
2024-04-04T08:47:43.464Z,936.28
2024-04-04T08:48:44.160Z,936.31
2024-04-04T08:49:44.975Z,936.29
2024-04-04T08:50:49.247Z,936.33
2024-04-04T08:51:46.751Z,936.28
2024-04-04T08:52:47.712Z,936.31
2024-04-04T08:53:48.567Z,936.33
2024-04-04T08:54:49.460Z,936.34
2024-04-04T08:55:50.110Z,936.34
2024-04-04T08:56:50.525Z,936.29
2024-04-04T08:57:51.516Z,936.33
2024-04-04T08:58:52.586Z,936.36
2024-04-04T08:59:53.336Z,936.34
2024-04-04T09:00:53.474Z,936.34
2024-04-04T09:01:54.317Z,936.3
2024-04-04T09:02:55.027Z,936.31
2024-04-04T09:03:55.948Z,936.28
2024-04-04T09:04:57.003Z,936.24
2024-04-04T09:05:57.711Z,936.27
2024-04-04T09:06:58.689Z,936.28
2024-04-04T09:07:59.743Z,936.25
2024-04-04T09:09:00.192Z,936.27
2024-04-04T09:10:00.414Z,936.25
2024-04-04T09:11:00.486Z,936.27
2024-04-04T09:12:01.033Z,936.21
2024-04-04T09:13:01.737Z,936.2
2024-04-04T09:14:02.436Z,936.21
2024-04-04T09:15:03.394Z,936.23
2024-04-04T09:16:04.039Z,936.25
2024-04-04T09:17:04.917Z,936.24
2024-04-04T09:18:05.649Z,936.24
2024-04-04T09:19:06.403Z,936.22
2024-04-04T09:20:07.466Z,936.2
2024-04-04T09:21:07.668Z,936.23
2024-04-04T09:22:08.650Z,936.15
2024-04-04T09:23:08.856Z,936.18
2024-04-04T09:24:08.992Z,936.14
2024-04-04T09:25:11.013Z,936.14
2024-04-04T09:26:10.298Z,936.11
2024-04-04T09:27:11.325Z,936.11
2024-04-04T09:28:12.280Z,936.08
2024-04-04T09:29:13.010Z,936.11
2024-04-04T09:30:13.735Z,936.13
2024-04-04T09:31:14.694Z,936.17
2024-04-04T09:32:15.398Z,936.17
2024-04-04T09:33:15.553Z,936.16
2024-04-04T09:34:16.098Z,936.12
2024-04-04T09:35:16.860Z,936.08
2024-04-04T09:36:17.268Z,936.07
2024-04-04T09:37:18.260Z,936.04
2024-04-04T09:38:18.410Z,936.01
2024-04-04T09:39:18.548Z,936
2024-04-04T09:40:19.454Z,935.98
2024-04-04T09:41:20.103Z,936
2024-04-04T09:42:21.077Z,935.94
2024-04-04T09:43:21.420Z,935.91
2024-04-04T09:44:22.364Z,935.93
2024-04-04T09:45:23.180Z,935.94
2024-04-04T09:46:24.106Z,935.94
2024-04-04T09:47:24.533Z,935.95
2024-04-04T09:49:25.953Z,935.88
2024-04-04T09:50:26.950Z,935.86
2024-04-04T09:51:27.885Z,935.82
2024-04-04T09:52:28.697Z,935.86
2024-04-04T09:53:29.464Z,935.86
2024-04-04T09:54:29.585Z,935.83
2024-04-04T09:55:30.609Z,935.87
2024-04-04T09:56:31.348Z,935.82
2024-04-04T09:57:32.061Z,935.82
2024-04-04T09:58:32.809Z,935.74
2024-04-04T09:59:33.763Z,935.74
2024-04-04T10:00:33.962Z,935.71
2024-04-04T10:01:34.820Z,935.65
2024-04-04T10:02:35.383Z,935.62
2024-04-04T10:03:36.318Z,935.65
2024-04-04T10:04:36.508Z,935.63
2024-04-04T10:05:37.463Z,935.65
2024-04-04T10:06:37.910Z,935.66
2024-04-04T10:07:38.465Z,935.63
2024-04-04T10:08:38.613Z,935.64
2024-04-04T10:09:39.504Z,935.66
2024-04-04T10:10:40.357Z,935.63
2024-04-04T10:11:40.652Z,935.64
2024-04-04T10:12:41.586Z,935.59
2024-04-04T10:13:41.734Z,935.61
2024-04-04T10:14:42.635Z,935.64
2024-04-04T10:15:43.666Z,935.61
2024-04-04T10:16:44.352Z,935.56
2024-04-04T10:17:44.914Z,935.57
2024-04-04T10:18:45.500Z,935.57
2024-04-04T10:19:46.460Z,935.55
2024-04-04T10:20:47.172Z,935.53
2024-04-04T10:21:47.327Z,935.51
2024-04-04T10:22:48.861Z,935.52
2024-04-04T10:23:49.124Z,935.5
2024-04-04T10:24:50.101Z,935.43
2024-04-04T10:25:50.714Z,935.44
2024-04-04T10:26:51.295Z,935.41
2024-04-04T10:27:51.409Z,935.42
2024-04-04T10:28:52.145Z,935.43
2024-04-04T10:29:53.756Z,935.47
2024-04-04T10:30:53.591Z,935.46
2024-04-04T10:31:54.127Z,935.47
2024-04-04T10:32:55.063Z,935.48
2024-04-04T10:33:56.055Z,935.47
2024-04-04T10:34:56.803Z,935.49
2024-04-04T10:35:57.612Z,935.47
2024-04-04T10:36:58.489Z,935.46
2024-04-04T10:37:58.705Z,935.43
2024-04-04T10:38:59.570Z,935.49
2024-04-04T10:40:00.535Z,935.45
2024-04-04T10:41:01.461Z,935.46
2024-04-04T10:42:02.205Z,935.47
2024-04-04T10:43:03.161Z,935.44
2024-04-04T10:44:04.185Z,935.44
2024-04-04T10:45:04.321Z,935.44
2024-04-04T10:46:05.404Z,935.44
2024-04-04T10:47:05.542Z,935.4
2024-04-04T10:48:06.187Z,935.45
2024-04-04T10:49:06.933Z,935.43
2024-04-04T10:50:07.278Z,935.46
2024-04-04T10:51:08.284Z,935.42
2024-04-04T10:52:09.207Z,935.4
2024-04-04T10:53:09.475Z,935.41
2024-04-04T10:54:09.658Z,935.44
2024-04-04T10:55:10.675Z,935.43
2024-04-04T10:56:11.694Z,935.42
2024-04-04T10:57:12.543Z,935.46
2024-04-04T10:58:13.078Z,935.45
2024-04-04T10:59:13.847Z,935.48
2024-04-04T11:00:14.572Z,935.51
2024-04-04T11:01:15.182Z,935.47
2024-04-04T11:02:16.127Z,935.44
2024-04-04T11:03:17.021Z,935.44
2024-04-04T11:04:17.992Z,935.46
2024-04-04T11:05:18.550Z,935.52
2024-04-04T11:06:19.529Z,935.5
2024-04-04T11:07:20.359Z,935.53
2024-04-04T11:08:21.324Z,935.53
2024-04-04T11:09:21.631Z,935.53
2024-04-04T11:10:22.342Z,935.52
2024-04-04T11:11:23.258Z,935.48
2024-04-04T11:12:24.201Z,935.47
2024-04-04T11:13:24.763Z,935.48
2024-04-04T11:14:25.694Z,935.48
2024-04-04T11:15:26.240Z,935.47
2024-04-04T11:16:27.041Z,935.47
2024-04-04T11:17:27.683Z,935.51
2024-04-04T11:18:27.904Z,935.5
2024-04-04T11:19:28.436Z,935.46
2024-04-04T11:20:29.359Z,935.49
2024-04-04T11:21:29.492Z,935.43
2024-04-04T11:22:30.399Z,935.46
2024-04-04T11:23:31.394Z,935.45
2024-04-04T11:24:31.546Z,935.42
2024-04-04T11:25:32.318Z,935.42
2024-04-04T11:26:32.396Z,935.34
2024-04-04T11:27:32.822Z,935.33
2024-04-04T11:28:39.812Z,935.3
2024-04-04T11:29:33.907Z,935.29
2024-04-04T11:30:34.501Z,935.25
2024-04-04T11:31:34.959Z,935.33
2024-04-04T11:32:35.764Z,935.39
2024-04-04T11:33:36.753Z,935.46
2024-04-04T11:34:37.479Z,935.52
2024-04-04T11:35:38.210Z,935.52
2024-04-04T11:36:38.950Z,935.54
2024-04-04T11:37:39.275Z,935.58
2024-04-04T11:38:39.607Z,935.53
2024-04-04T11:39:39.801Z,935.53
2024-04-04T11:40:39.996Z,935.5
2024-04-04T11:41:40.146Z,935.51
2024-04-04T11:42:40.874Z,935.51
2024-04-04T11:43:41.447Z,935.54
2024-04-04T11:44:42.451Z,935.62
2024-04-04T11:45:43.360Z,935.56
2024-04-04T11:46:44.103Z,935.54
2024-04-04T11:47:44.790Z,935.54
2024-04-04T11:48:45.290Z,935.5
2024-04-04T11:49:45.997Z,935.55
2024-04-04T11:50:46.744Z,935.57
2024-04-04T11:51:47.567Z,935.51
2024-04-04T11:52:48.276Z,935.52
2024-04-04T11:53:49.201Z,935.51
2024-04-04T11:54:49.365Z,935.47
2024-04-04T11:55:49.951Z,935.46
2024-04-04T11:56:50.664Z,935.37
2024-04-04T11:57:50.795Z,935.4
2024-04-04T11:58:51.702Z,935.39
2024-04-04T11:59:52.196Z,935.4
2024-04-04T12:00:52.970Z,935.44
2024-04-04T12:01:53.695Z,935.45
2024-04-04T12:02:54.423Z,935.49
2024-04-04T12:03:54.927Z,935.5
2024-04-04T12:04:55.562Z,935.55
2024-04-04T12:05:56.500Z,935.55
2024-04-04T12:06:57.112Z,935.56
2024-04-04T12:07:57.584Z,935.56
2024-04-04T12:08:58.099Z,935.47
2024-04-04T12:09:58.874Z,935.48
2024-04-04T12:10:59.882Z,935.5
2024-04-04T12:12:00.888Z,935.51
2024-04-04T12:13:01.678Z,935.49
2024-04-04T12:14:02.294Z,935.48
2024-04-04T12:15:03.056Z,935.47
2024-04-04T12:16:03.248Z,935.5
2024-04-04T12:17:04.289Z,935.49
2024-04-04T12:18:05.073Z,935.49
2024-04-04T12:19:05.788Z,935.51
2024-04-04T12:20:06.054Z,935.48
2024-04-04T12:21:07.019Z,935.52
2024-04-04T12:22:08.028Z,935.49
2024-04-04T12:23:08.340Z,935.47
2024-04-04T12:24:08.870Z,935.48
2024-04-04T12:25:09.090Z,935.46
2024-04-04T12:26:09.307Z,935.47
2024-04-04T12:27:09.819Z,935.49
2024-04-04T12:28:10.318Z,935.52
2024-04-04T12:29:11.068Z,935.43
2024-04-04T12:30:11.810Z,935.43
2024-04-04T12:31:12.903Z,935.44
2024-04-04T12:32:13.129Z,935.48
2024-04-04T12:33:14.096Z,935.52
2024-04-04T12:34:14.813Z,935.56
2024-04-04T12:35:15.631Z,935.57
2024-04-04T12:36:16.555Z,935.63
2024-04-04T12:37:17.594Z,935.67
2024-04-04T12:38:18.420Z,935.71
2024-04-04T12:39:19.139Z,935.71
2024-04-04T12:40:19.973Z,935.71